createdAt,value
2022-12-18T00:01:07.210Z,103137.72
2022-12-18T00:03:37.338Z,103140.25
2022-12-18T00:06:04.148Z,103149.19
2022-12-18T00:08:30.522Z,103134.22
2022-12-18T00:11:04.625Z,103139.47
2022-12-18T00:13:33.867Z,103141.16
2022-12-18T00:16:05.756Z,103145.66
2022-12-18T00:18:32.839Z,103147.38
2022-12-18T00:21:01.597Z,103141.34
2022-12-18T00:23:28.704Z,103143.03
2022-12-18T00:25:55.138Z,103144.66
2022-12-18T00:28:21.498Z,103144.78
2022-12-18T00:30:47.915Z,103142.34
2022-12-18T00:33:14.290Z,103147.56
2022-12-18T00:35:40.630Z,103151.19
2022-12-18T00:38:07.265Z,103149.28
2022-12-18T00:40:33.923Z,103146.66
2022-12-18T00:43:00.288Z,103141.44
2022-12-18T00:45:31.713Z,103128.28
2022-12-18T00:47:58.188Z,103142.25
2022-12-18T00:50:26.230Z,103146.72
2022-12-18T00:52:52.914Z,103143.31
2022-12-18T00:55:19.615Z,103134.56
2022-12-18T00:57:45.987Z,103132.81
2022-12-18T01:00:15.042Z,103124.84
2022-12-18T01:02:42.284Z,103126.69
2022-12-18T01:05:10.187Z,103127.63
2022-12-18T01:07:36.624Z,103129.44
2022-12-18T01:10:03.638Z,103143.38
2022-12-18T01:12:30.001Z,103154.81
2022-12-18T01:14:56.589Z,103154.78
2022-12-18T01:17:23.036Z,103160.84
2022-12-18T01:19:49.411Z,103160.00
2022-12-18T01:22:16.350Z,103154.75
2022-12-18T01:24:42.678Z,103157.38
2022-12-18T01:27:09.016Z,103161.78
2022-12-18T01:29:35.369Z,103158.44
2022-12-18T01:32:01.766Z,103166.28
2022-12-18T01:34:28.182Z,103156.81
2022-12-18T01:36:54.598Z,103170.03
2022-12-18T01:39:20.989Z,103165.72
2022-12-18T01:42:02.923Z,103171.84
2022-12-18T01:44:53.803Z,103168.34
2022-12-18T01:47:26.251Z,103170.25
2022-12-18T01:49:53.885Z,103160.69
2022-12-18T01:52:21.487Z,103165.19
2022-12-18T01:54:50.851Z,103158.31
2022-12-18T01:57:17.648Z,103163.63
2022-12-18T01:59:49.216Z,103167.19
2022-12-18T02:02:17.703Z,103164.72
2022-12-18T02:04:49.402Z,103171.66
2022-12-18T02:07:21.422Z,103172.53
2022-12-18T02:09:54.084Z,103173.53
2022-12-18T02:12:25.529Z,103169.22
2022-12-18T02:15:09.977Z,103167.47
2022-12-18T02:17:43.446Z,103165.78
2022-12-18T02:20:44.763Z,103158.09
2022-12-18T02:23:42.206Z,103172.94
2022-12-18T02:26:50.375Z,103178.25
2022-12-18T02:29:28.320Z,103153.88
2022-12-18T02:31:58.673Z,103167.78
2022-12-18T02:34:30.830Z,103167.84
2022-12-18T02:36:59.249Z,103168.78
2022-12-18T02:39:30.085Z,103163.53
2022-12-18T02:41:58.401Z,103159.22
2022-12-18T02:44:24.754Z,103147.00
2022-12-18T02:46:53.675Z,103154.09
2022-12-18T02:49:35.137Z,103156.69
2022-12-18T02:52:16.655Z,103163.78
2022-12-18T02:55:13.845Z,103170.78
2022-12-18T02:57:46.038Z,103171.69
2022-12-18T03:00:21.192Z,103165.63
2022-12-18T03:03:07.373Z,103170.91
2022-12-18T03:05:46.941Z,103170.94
2022-12-18T03:08:24.021Z,103163.94
2022-12-18T03:11:12.216Z,103160.53
2022-12-18T03:13:49.440Z,103161.31
2022-12-18T03:16:25.706Z,103158.78
2022-12-18T03:19:02.193Z,103149.19
2022-12-18T03:21:37.665Z,103156.13
2022-12-18T03:24:08.803Z,103164.03
2022-12-18T03:26:41.099Z,103163.28
2022-12-18T03:29:12.889Z,103165.78
2022-12-18T03:31:43.592Z,103158.91
2022-12-18T03:34:31.794Z,103169.41
2022-12-18T03:36:58.593Z,103162.47
2022-12-18T03:39:25.690Z,103160.72
2022-12-18T03:42:20.032Z,103163.34
2022-12-18T03:45:02.967Z,103169.44
2022-12-18T03:47:39.908Z,103162.53
2022-12-18T03:50:15.682Z,103159.97
2022-12-18T03:52:55.782Z,103163.47
2022-12-18T03:55:24.460Z,103150.38
2022-12-18T03:57:52.912Z,103148.69
2022-12-18T04:00:20.434Z,103151.34
2022-12-18T04:02:51.850Z,103151.34
2022-12-18T04:05:19.846Z,103150.47
2022-12-18T04:07:48.583Z,103142.66
2022-12-18T04:10:18.914Z,103138.31
2022-12-18T04:12:45.708Z,103150.50
2022-12-18T04:15:13.654Z,103139.22
2022-12-18T04:17:48.494Z,103141.78
2022-12-18T04:20:15.080Z,103136.59
2022-12-18T04:22:41.485Z,103127.84
2022-12-18T04:25:08.279Z,103125.22
2022-12-18T04:27:34.803Z,103126.97
2022-12-18T04:30:01.782Z,103127.88
2022-12-18T04:32:28.160Z,103134.84
2022-12-18T04:34:54.515Z,103132.28
2022-12-18T04:37:20.897Z,103138.31
2022-12-18T04:39:47.245Z,103143.56
2022-12-18T04:42:13.600Z,103150.53
2022-12-18T04:44:39.924Z,103148.78
2022-12-18T04:47:06.351Z,103154.03
2022-12-18T04:49:32.788Z,103159.28
2022-12-18T04:51:59.134Z,103161.88
2022-12-18T04:54:26.396Z,103159.28
2022-12-18T04:56:52.750Z,103146.22
2022-12-18T04:59:19.555Z,103150.56
2022-12-18T05:01:46.789Z,103149.66
2022-12-18T05:04:13.341Z,103148.81
2022-12-18T05:06:39.722Z,103155.78
2022-12-18T05:09:06.286Z,103145.38
2022-12-18T05:11:32.678Z,103150.56
2022-12-18T05:13:59.040Z,103154.97
2022-12-18T05:16:25.449Z,103158.47
2022-12-18T05:18:51.844Z,103156.75
2022-12-18T05:21:18.184Z,103157.59
2022-12-18T05:23:44.683Z,103159.34
2022-12-18T05:26:17.119Z,103165.44
2022-12-18T05:28:43.553Z,103160.28
2022-12-18T05:31:10.134Z,103165.41
2022-12-18T05:33:36.917Z,103166.34
2022-12-18T05:36:06.110Z,103162.84
2022-12-18T05:38:33.641Z,103167.22
2022-12-18T05:41:00.250Z,103173.31
2022-12-18T05:43:27.878Z,103168.94
2022-12-18T05:45:54.974Z,103168.94
2022-12-18T05:48:22.257Z,103173.34
2022-12-18T05:50:50.497Z,103176.84
2022-12-18T05:53:18.763Z,103171.63
2022-12-18T05:55:45.311Z,103166.44
2022-12-18T05:58:13.192Z,103161.16
2022-12-18T06:00:44.964Z,103161.19
2022-12-18T06:03:13.039Z,103160.34
2022-12-18T06:05:42.854Z,103164.69
2022-12-18T06:08:09.288Z,103174.28
2022-12-18T06:10:35.987Z,103179.50
2022-12-18T06:13:02.629Z,103183.00
2022-12-18T06:15:29.010Z,103192.56
2022-12-18T06:17:55.368Z,103209.13
2022-12-18T06:20:21.762Z,103216.97
2022-12-18T06:22:48.335Z,103211.75
2022-12-18T06:25:15.095Z,103217.84
2022-12-18T06:27:41.507Z,103213.44
2022-12-18T06:30:09.376Z,103225.66
2022-12-18T06:32:35.841Z,103219.56
2022-12-18T06:35:02.173Z,103228.28
2022-12-18T06:37:29.201Z,103221.31
2022-12-18T06:39:57.414Z,103222.19
2022-12-18T06:42:24.814Z,103215.25
2022-12-18T06:44:51.401Z,103201.34
2022-12-18T06:47:17.805Z,103195.25
2022-12-18T06:49:44.421Z,103194.38
2022-12-18T06:52:10.831Z,103197.00
2022-12-18T06:54:37.250Z,103194.38
2022-12-18T06:57:03.658Z,103190.88
2022-12-18T06:59:30.110Z,103188.28
2022-12-18T07:01:56.628Z,103183.91
2022-12-18T07:04:23.148Z,103193.50
2022-12-18T07:06:49.557Z,103186.56
2022-12-18T07:09:15.891Z,103176.97
2022-12-18T07:11:42.618Z,103175.25
2022-12-18T07:14:08.973Z,103175.22
2022-12-18T07:16:35.434Z,103161.31
2022-12-18T07:19:01.814Z,103165.66
2022-12-18T07:21:28.185Z,103158.66
2022-12-18T07:23:54.824Z,103163.03
2022-12-18T07:26:21.996Z,103164.75
2022-12-18T07:28:49.065Z,103163.00
2022-12-18T07:31:19.507Z,103149.09
2022-12-18T07:33:48.187Z,103140.38
2022-12-18T07:36:15.098Z,103141.25
2022-12-18T07:38:41.527Z,103133.41
2022-12-18T07:41:11.034Z,103133.41
2022-12-18T07:43:38.765Z,103138.56
2022-12-18T07:46:05.958Z,103140.28
2022-12-18T07:48:32.690Z,103130.69
2022-12-18T07:51:01.925Z,103133.31
2022-12-18T07:53:28.564Z,103131.53
2022-12-18T07:56:31.765Z,103134.19
2022-12-18T07:58:50.405Z,103137.59
2022-12-18T08:01:17.016Z,103136.75
2022-12-18T08:03:43.792Z,103139.34
2022-12-18T08:06:11.090Z,103128.88
2022-12-18T08:08:37.955Z,103141.06
2022-12-18T08:11:04.488Z,103147.13
2022-12-18T08:13:30.879Z,103155.78
2022-12-18T08:16:08.314Z,103156.63
2022-12-18T08:18:36.229Z,103151.38
2022-12-18T08:21:17.705Z,103146.09
2022-12-18T08:23:44.335Z,103146.06
2022-12-18T08:26:12.450Z,103134.78
2022-12-18T08:28:38.830Z,103142.50
2022-12-18T08:31:05.586Z,103126.81
2022-12-18T08:33:32.419Z,103124.97
2022-12-18T08:36:02.479Z,103132.75
2022-12-18T08:38:29.344Z,103128.22
2022-12-18T08:41:05.043Z,103124.88
2022-12-18T08:43:50.310Z,103123.16
2022-12-18T08:46:17.843Z,103132.63
2022-12-18T08:48:44.637Z,103140.47
2022-12-18T08:51:11.333Z,103132.63
2022-12-18T08:53:38.546Z,103135.16
2022-12-18T08:56:06.127Z,103134.25
2022-12-18T08:58:32.609Z,103127.13
2022-12-18T09:01:04.058Z,103136.66
2022-12-18T09:03:30.621Z,103143.56
2022-12-18T09:05:57.337Z,103146.16
2022-12-18T09:08:23.920Z,103147.00
2022-12-18T09:10:51.041Z,103150.44
2022-12-18T09:13:17.928Z,103159.03
2022-12-18T09:15:49.040Z,103159.97
2022-12-18T09:18:17.392Z,103158.09
2022-12-18T09:20:44.149Z,103168.41
2022-12-18T09:23:11.044Z,103159.50
2022-12-18T09:25:37.989Z,103154.25
2022-12-18T09:28:12.355Z,103156.75
2022-12-18T09:30:40.888Z,103153.94
2022-12-18T09:33:07.306Z,103152.03
2022-12-18T09:35:33.857Z,103152.88
2022-12-18T09:38:00.361Z,103143.00
2022-12-18T09:40:33.477Z,103134.97
2022-12-18T09:43:04.161Z,103137.34
2022-12-18T09:45:41.570Z,103129.75
2022-12-18T09:48:16.814Z,103123.94
2022-12-18T09:50:43.709Z,103115.97
2022-12-18T09:53:33.755Z,103102.06
2022-12-18T09:56:02.627Z,103101.28
2022-12-18T09:58:47.487Z,103098.53
2022-12-18T10:01:21.804Z,103089.03
2022-12-18T10:03:48.888Z,103096.09
2022-12-18T10:06:33.587Z,103095.84
2022-12-18T10:09:07.253Z,103094.03
2022-12-18T10:12:09.518Z,103087.63
2022-12-18T10:15:05.566Z,103085.13
2022-12-18T10:17:51.629Z,103083.31
2022-12-18T10:20:49.628Z,103086.84
2022-12-18T10:23:21.604Z,103088.41
2022-12-18T10:26:03.691Z,103075.19
2022-12-18T10:28:37.291Z,103073.50
2022-12-18T10:31:06.434Z,103071.13
2022-12-18T10:33:34.923Z,103067.41
2022-12-18T10:36:01.369Z,103052.69
2022-12-18T10:38:30.289Z,103048.97
2022-12-18T10:41:26.652Z,103053.56
2022-12-18T10:44:17.782Z,103052.50
2022-12-18T10:46:47.062Z,103050.94
2022-12-18T10:49:28.113Z,103063.78
2022-12-18T10:52:21.805Z,103054.38
2022-12-18T10:54:55.832Z,103035.72
2022-12-18T10:57:32.678Z,103033.13
2022-12-18T11:00:01.261Z,103015.78
2022-12-18T11:02:39.665Z,103016.78
2022-12-18T11:05:29.130Z,103010.88
2022-12-18T11:07:57.152Z,103001.41
2022-12-18T11:10:36.571Z,103000.66
2022-12-18T11:13:22.895Z,103010.34
2022-12-18T11:15:50.000Z,102999.66
2022-12-18T11:18:25.891Z,102996.13
2022-12-18T11:21:08.275Z,102986.31
2022-12-18T11:23:35.903Z,102994.06
2022-12-18T11:26:05.051Z,102991.59
2022-12-18T11:28:42.250Z,102996.75
2022-12-18T11:31:12.512Z,103001.22
2022-12-18T11:33:58.451Z,102998.44
2022-12-18T11:36:36.158Z,102984.34
2022-12-18T11:39:17.600Z,102987.13
2022-12-18T11:42:13.493Z,102984.47
2022-12-18T11:44:49.146Z,102987.94
2022-12-18T11:47:49.935Z,102986.97
2022-12-18T11:50:27.032Z,102981.78
2022-12-18T11:52:57.486Z,102984.44
2022-12-18T11:55:37.957Z,102952.22
2022-12-18T11:58:39.441Z,102978.13
2022-12-18T12:01:22.888Z,102972.84
2022-12-18T12:04:01.527Z,102962.31
2022-12-18T12:07:02.789Z,102956.84
2022-12-18T12:09:58.423Z,102948.97
2022-12-18T12:12:48.643Z,102944.47
2022-12-18T12:15:33.865Z,102935.50
2022-12-18T12:18:00.160Z,102924.03
2022-12-18T12:20:50.478Z,102930.00
2022-12-18T12:23:30.408Z,102911.66
2022-12-18T12:26:03.770Z,102911.44
2022-12-18T12:28:36.048Z,102903.53
2022-12-18T12:31:49.820Z,102893.72
2022-12-18T12:34:20.308Z,102897.03
2022-12-18T12:37:13.836Z,102882.28
2022-12-18T12:39:43.544Z,102869.09
2022-12-18T12:42:48.749Z,102868.00
2022-12-18T12:45:23.769Z,102867.91
2022-12-18T12:47:53.002Z,102879.31
2022-12-18T12:50:21.845Z,102853.84
2022-12-18T12:52:55.947Z,102845.81
2022-12-18T12:55:25.973Z,102844.63
2022-12-18T12:58:02.921Z,102844.78
2022-12-18T13:00:36.972Z,102823.63
2022-12-18T13:03:27.713Z,102824.47
2022-12-18T13:06:01.759Z,102822.56
2022-12-18T13:12:00.305Z,102813.59
2022-12-18T13:14:34.739Z,102814.47
2022-12-18T13:17:22.734Z,102802.97
2022-12-18T13:20:10.512Z,102813.44
2022-12-18T13:22:46.871Z,102799.44
2022-12-18T13:25:31.661Z,102809.94
2022-12-18T13:28:09.453Z,102811.78
2022-12-18T13:30:36.110Z,102810.97
2022-12-18T13:33:15.247Z,102804.03
2022-12-18T13:35:49.721Z,102797.19
2022-12-18T13:38:25.205Z,102794.44
2022-12-18T13:40:56.534Z,102778.75
2022-12-18T13:43:22.846Z,102780.47
2022-12-18T13:46:00.575Z,102772.63
2022-12-18T13:48:28.903Z,102766.47
2022-12-18T13:51:05.962Z,102763.03
2022-12-18T13:53:45.585Z,102757.09
2022-12-18T13:56:17.537Z,102761.28
2022-12-18T13:58:44.221Z,102757.66
2022-12-18T14:01:24.566Z,102759.47
2022-12-18T14:04:10.284Z,102759.47
2022-12-18T14:06:37.154Z,102755.13
2022-12-18T14:09:04.015Z,102759.41
2022-12-18T14:11:31.466Z,102753.38
2022-12-18T14:13:58.446Z,102747.09
2022-12-18T14:16:24.913Z,102732.25
2022-12-18T14:19:05.004Z,102727.16
2022-12-18T14:21:41.418Z,102731.59
2022-12-18T14:24:22.400Z,102731.06
2022-12-18T14:26:50.897Z,102737.56
2022-12-18T14:29:29.056Z,102730.56
2022-12-18T14:32:17.933Z,102738.53
2022-12-18T14:34:54.566Z,102738.63
2022-12-18T14:37:23.657Z,102739.56
2022-12-18T14:39:59.030Z,102749.34
2022-12-18T14:42:29.565Z,102731.16
2022-12-18T14:45:39.121Z,102722.31
2022-12-18T14:48:22.916Z,102705.72
2022-12-18T14:51:03.783Z,102704.97
2022-12-18T14:53:42.253Z,102699.56
2022-12-18T14:56:17.709Z,102712.00
2022-12-18T14:58:52.658Z,102713.75
2022-12-18T15:01:32.769Z,102714.59
2022-12-18T15:04:00.980Z,102702.38
2022-12-18T15:06:29.576Z,102697.97
2022-12-18T15:08:56.120Z,102694.53
2022-12-18T15:11:46.906Z,102693.72
2022-12-18T15:14:33.006Z,102694.47
2022-12-18T15:17:01.406Z,102690.16
2022-12-18T15:19:41.284Z,102695.34
2022-12-18T15:22:18.591Z,102700.66
2022-12-18T15:24:45.032Z,102703.25
2022-12-18T15:27:34.269Z,102691.13
2022-12-18T15:30:22.333Z,102691.13
2022-12-18T15:32:49.957Z,102678.84
2022-12-18T15:35:18.545Z,102687.69
2022-12-18T15:37:45.563Z,102673.69
2022-12-18T15:40:20.468Z,102674.44
2022-12-18T15:43:06.904Z,102669.22
2022-12-18T15:45:33.528Z,102672.75
2022-12-18T15:48:00.513Z,102647.38
2022-12-18T15:50:27.112Z,102645.56
2022-12-18T15:52:56.323Z,102656.88
2022-12-18T15:55:43.740Z,102643.81
2022-12-18T15:58:11.271Z,102642.94
2022-12-18T16:00:40.940Z,102628.03
2022-12-18T16:03:07.870Z,102610.66
2022-12-18T16:05:34.463Z,102624.41
2022-12-18T16:08:00.816Z,102605.91
2022-12-18T16:10:27.363Z,102602.50
2022-12-18T16:12:53.835Z,102586.69
2022-12-18T16:15:24.586Z,102589.25
2022-12-18T16:17:51.288Z,102590.00
2022-12-18T16:20:21.526Z,102580.38
2022-12-18T16:22:49.097Z,102569.63
2022-12-18T16:25:24.253Z,102562.63
2022-12-18T16:27:51.579Z,102560.88
2022-12-18T16:30:21.407Z,102544.03
2022-12-18T16:32:48.020Z,102542.97
2022-12-18T16:35:16.090Z,102556.03
2022-12-18T16:37:43.184Z,102554.16
2022-12-18T16:40:12.500Z,102559.31
2022-12-18T16:42:40.181Z,102554.94
2022-12-18T16:45:08.403Z,102551.13
2022-12-18T16:47:35.476Z,102554.75
2022-12-18T16:50:01.908Z,102559.75
2022-12-18T16:52:28.449Z,102556.19
2022-12-18T16:54:54.834Z,102547.38
2022-12-18T16:57:22.686Z,102541.16
2022-12-18T16:59:52.881Z,102534.69
2022-12-18T17:02:23.526Z,102532.97
2022-12-18T17:04:53.848Z,102522.31
2022-12-18T17:07:20.229Z,102529.31
2022-12-18T17:09:46.642Z,102528.50
2022-12-18T17:12:13.215Z,102544.16
2022-12-18T17:14:39.681Z,102540.72
2022-12-18T17:17:20.952Z,102541.56
2022-12-18T17:19:47.972Z,102535.41
2022-12-18T17:22:14.336Z,102516.09
2022-12-18T17:24:40.666Z,102502.97
2022-12-18T17:27:08.738Z,102496.97
2022-12-18T17:29:35.183Z,102500.28
2022-12-18T17:32:01.523Z,102494.16
2022-12-18T17:34:28.262Z,102498.59
2022-12-18T17:36:55.326Z,102507.50
2022-12-18T17:39:22.508Z,102493.47
2022-12-18T17:41:49.435Z,102503.00
2022-12-18T17:44:17.003Z,102501.19
2022-12-18T17:46:43.760Z,102488.97
2022-12-18T17:49:10.600Z,102492.41
2022-12-18T17:51:37.236Z,102494.19
2022-12-18T17:54:05.276Z,102471.34
2022-12-18T17:56:31.707Z,102476.47
2022-12-18T17:58:58.776Z,102468.53
2022-12-18T18:01:26.207Z,102467.78
2022-12-18T18:03:54.211Z,102478.16
2022-12-18T18:06:20.856Z,102474.66
2022-12-18T18:08:47.953Z,102479.13
2022-12-18T18:11:36.506Z,102464.97
2022-12-18T18:14:05.473Z,102460.56
2022-12-18T18:16:40.381Z,102445.50
2022-12-18T18:19:09.600Z,102464.78
2022-12-18T18:21:40.761Z,102470.94
2022-12-18T18:24:08.783Z,102449.91
2022-12-18T18:26:37.179Z,102448.19
2022-12-18T18:29:06.287Z,102450.47
2022-12-18T18:31:41.106Z,102447.97
2022-12-18T18:34:08.551Z,102454.03
2022-12-18T18:36:34.912Z,102454.56
2022-12-18T18:39:02.179Z,102450.38
2022-12-18T18:41:29.926Z,102436.16
2022-12-18T18:43:57.532Z,102442.09
2022-12-18T18:46:24.344Z,102443.09
2022-12-18T18:48:50.779Z,102442.97
2022-12-18T18:51:20.879Z,102433.41
2022-12-18T18:53:50.161Z,102443.72
2022-12-18T18:56:45.340Z,102449.66
2022-12-18T18:59:05.697Z,102442.78
2022-12-18T19:01:32.381Z,102435.00
2022-12-18T19:03:58.895Z,102439.22
2022-12-18T19:06:28.471Z,102433.03
2022-12-18T19:08:56.663Z,102438.31
2022-12-18T19:11:48.003Z,102439.16
2022-12-18T19:14:15.787Z,102441.75
2022-12-18T19:16:43.740Z,102448.00
2022-12-18T19:19:10.302Z,102435.56
2022-12-18T19:21:38.116Z,102437.44
2022-12-18T19:24:05.572Z,102424.81
2022-12-18T19:26:32.135Z,102424.25
2022-12-18T19:29:06.588Z,102429.53
2022-12-18T19:31:36.145Z,102417.03
2022-12-18T19:34:05.147Z,102416.00
2022-12-18T19:36:32.779Z,102413.16
2022-12-18T19:39:00.906Z,102419.25
2022-12-18T19:41:30.641Z,102415.75
2022-12-18T19:43:59.330Z,102421.09
2022-12-18T19:46:25.779Z,102411.09
2022-12-18T19:48:52.403Z,102405.94
2022-12-18T19:51:22.563Z,102391.81
2022-12-18T19:53:53.563Z,102397.03
2022-12-18T19:56:25.739Z,102397.09
2022-12-18T19:58:53.514Z,102401.56
2022-12-18T20:01:21.696Z,102405.81
2022-12-18T20:03:52.601Z,102404.72
2022-12-18T20:06:28.837Z,102406.53
2022-12-18T20:09:00.347Z,102394.31
2022-12-18T20:11:27.500Z,102391.56
2022-12-18T20:13:53.934Z,102378.69
2022-12-18T20:16:20.501Z,102387.78
2022-12-18T20:18:46.985Z,102380.78
2022-12-18T20:21:14.283Z,102371.94
2022-12-18T20:23:41.115Z,102376.34
2022-12-18T20:26:08.572Z,102369.16
2022-12-18T20:28:35.414Z,102366.53
2022-12-18T20:31:03.880Z,102367.28
2022-12-18T20:33:31.074Z,102369.81
2022-12-18T20:36:02.761Z,102373.41
2022-12-18T20:38:30.366Z,102369.56
2022-12-18T20:40:59.329Z,102373.25
2022-12-18T20:43:26.019Z,102372.94
2022-12-18T20:46:00.474Z,102377.41
2022-12-18T20:48:28.028Z,102373.56
2022-12-18T20:51:03.922Z,102370.75
2022-12-18T20:53:30.637Z,102360.22
2022-12-18T20:55:57.030Z,102364.63
2022-12-18T20:58:23.814Z,102361.81
2022-12-18T21:00:51.498Z,102353.03
2022-12-18T21:03:18.763Z,102359.81
2022-12-18T21:05:45.209Z,102355.31
2022-12-18T21:08:11.707Z,102349.78
2022-12-18T21:10:42.339Z,102350.44
2022-12-18T21:13:09.519Z,102342.31
2022-12-18T21:15:37.743Z,102338.59
2022-12-18T21:18:04.336Z,102339.47
2022-12-18T21:20:31.207Z,102336.03
2022-12-18T21:23:04.673Z,102328.34
2022-12-18T21:25:41.378Z,102336.22
2022-12-18T21:28:07.730Z,102336.16
2022-12-18T21:30:34.112Z,102344.84
2022-12-18T21:33:00.495Z,102344.19
2022-12-18T21:35:27.414Z,102341.28
2022-12-18T21:37:57.357Z,102342.16
2022-12-18T21:40:24.042Z,102331.34
2022-12-18T21:43:09.153Z,102327.94
2022-12-18T21:45:36.917Z,102327.84
2022-12-18T21:48:03.351Z,102321.66
2022-12-18T21:50:32.834Z,102306.03
2022-12-18T21:52:59.204Z,102300.53
2022-12-18T21:55:25.843Z,102304.03
2022-12-18T21:57:53.745Z,102287.38
2022-12-18T22:00:20.178Z,102290.69
2022-12-18T22:02:47.797Z,102301.97
2022-12-18T22:05:14.482Z,102294.09
2022-12-18T22:07:40.905Z,102288.53
2022-12-18T22:10:07.790Z,102283.34
2022-12-18T22:12:38.536Z,102280.59
2022-12-18T22:15:11.392Z,102282.31
2022-12-18T22:17:39.511Z,102286.69
2022-12-18T22:20:06.455Z,102279.44
2022-12-18T22:22:32.790Z,102273.47
2022-12-18T22:24:59.143Z,102274.09
2022-12-18T22:27:25.477Z,102284.53
2022-12-18T22:30:03.915Z,102264.47
2022-12-18T22:32:32.384Z,102277.38
2022-12-18T22:35:05.316Z,102280.94
2022-12-18T22:37:33.771Z,102262.38
2022-12-18T22:40:03.124Z,102251.25
2022-12-18T22:42:31.399Z,102258.03
2022-12-18T22:44:57.764Z,102242.56
2022-12-18T22:47:29.244Z,102248.13
2022-12-18T22:49:56.348Z,102254.41
2022-12-18T22:52:23.851Z,102250.63
2022-12-18T22:54:53.217Z,102253.41
2022-12-18T22:57:20.293Z,102249.13
2022-12-18T22:59:46.697Z,102249.00
2022-12-18T23:02:13.134Z,102246.41
2022-12-18T23:04:39.742Z,102248.03
2022-12-18T23:07:06.642Z,102237.69
2022-12-18T23:09:33.571Z,102236.53
2022-12-18T23:11:59.954Z,102235.00
2022-12-18T23:14:26.497Z,102218.34
2022-12-18T23:16:53.157Z,102228.56
2022-12-18T23:19:19.897Z,102235.56
2022-12-18T23:21:46.299Z,102216.13
2022-12-18T23:24:12.661Z,102217.06
2022-12-18T23:26:39.086Z,102208.22
2022-12-18T23:29:05.666Z,102207.25
2022-12-18T23:31:34.794Z,102201.03
2022-12-18T23:34:02.297Z,102184.19
2022-12-18T23:36:28.871Z,102194.13
2022-12-18T23:39:00.429Z,102186.97
2022-12-18T23:41:30.115Z,102181.06
2022-12-18T23:43:57.581Z,102171.22
2022-12-18T23:46:29.647Z,102176.56
2022-12-18T23:48:58.480Z,102174.78
2022-12-18T23:51:25.711Z,102168.41
2022-12-18T23:53:53.785Z,102164.16
2022-12-18T23:56:20.550Z,102163.13
2022-12-18T23:58:48.920Z,102162.28
